sensor_id;sensor_type;location;lat;lon;timestamp;P1;durP1;ratioP1;P2;durP2;ratioP2
51485;SDS011;37565;51.352;6.412;2023-05-07T19:06:45;80.78;;;31.70;;
51485;SDS011;37565;51.352;6.412;2023-05-07T19:09:13;68.78;;;29.00;;
51485;SDS011;37565;51.352;6.412;2023-05-07T19:11:41;68.35;;;29.60;;
51485;SDS011;37565;51.352;6.412;2023-05-07T19:14:09;66.30;;;29.38;;
51485;SDS011;37565;51.352;6.412;2023-05-07T19:16:37;71.63;;;29.23;;
51485;SDS011;37565;51.352;6.412;2023-05-07T19:19:05;61.33;;;26.10;;
51485;SDS011;37565;51.352;6.412;2023-05-07T19:21:33;59.67;;;24.58;;
51485;SDS011;37565;51.352;6.412;2023-05-07T19:24:02;61.22;;;24.58;;
51485;SDS011;37565;51.352;6.412;2023-05-07T19:26:31;60.13;;;23.60;;
51485;SDS011;37565;51.352;6.412;2023-05-07T19:28:59;50.83;;;21.85;;
51485;SDS011;37565;51.352;6.412;2023-05-07T19:31:43;46.03;;;20.37;;
51485;SDS011;37565;51.352;6.412;2023-05-07T19:34:11;49.88;;;19.15;;
51485;SDS011;37565;51.352;6.412;2023-05-07T19:36:40;43.33;;;18.35;;
51485;SDS011;37565;51.352;6.412;2023-05-07T19:39:09;40.33;;;18.10;;
51485;SDS011;37565;51.352;6.412;2023-05-07T19:41:37;39.25;;;17.23;;
51485;SDS011;37565;51.352;6.412;2023-05-07T19:44:07;39.80;;;17.42;;
51485;SDS011;37565;51.352;6.412;2023-05-07T19:46:35;39.95;;;16.95;;
51485;SDS011;37565;51.352;6.412;2023-05-07T19:49:05;35.55;;;14.80;;
51485;SDS011;37565;51.352;6.412;2023-05-07T19:51:37;36.67;;;15.13;;
51485;SDS011;37565;51.352;6.412;2023-05-07T19:54:05;33.38;;;13.82;;
51485;SDS011;37565;51.352;6.412;2023-05-07T19:56:34;41.35;;;13.55;;
51485;SDS011;37565;51.352;6.412;2023-05-07T19:59:02;29.85;;;12.20;;
51485;SDS011;37565;51.352;6.412;2023-05-07T20:01:30;27.20;;;12.35;;
51485;SDS011;37565;51.352;6.412;2023-05-07T20:03:58;24.48;;;11.77;;
51485;SDS011;37565;51.352;6.412;2023-05-07T20:06:26;26.30;;;11.07;;
51485;SDS011;37565;51.352;6.412;2023-05-07T20:08:54;18.40;;;10.48;;
51485;SDS011;37565;51.352;6.412;2023-05-07T20:11:22;23.25;;;10.15;;
51485;SDS011;37565;51.352;6.412;2023-05-07T20:13:51;23.23;;;11.70;;
51485;SDS011;37565;51.352;6.412;2023-05-07T20:16:19;25.67;;;11.38;;
51485;SDS011;37565;51.352;6.412;2023-05-07T20:18:47;27.33;;;12.23;;
51485;SDS011;37565;51.352;6.412;2023-05-07T20:21:15;27.33;;;12.50;;
51485;SDS011;37565;51.352;6.412;2023-05-07T20:23:43;32.17;;;13.40;;
51485;SDS011;37565;51.352;6.412;2023-05-07T20:26:11;26.45;;;11.82;;
51485;SDS011;37565;51.352;6.412;2023-05-07T20:28:39;32.60;;;11.38;;
51485;SDS011;37565;51.352;6.412;2023-05-07T20:31:09;23.50;;;10.82;;
51485;SDS011;37565;51.352;6.412;2023-05-07T20:33:37;20.23;;;10.65;;
51485;SDS011;37565;51.352;6.412;2023-05-07T20:36:06;28.88;;;9.95;;
51485;SDS011;37565;51.352;6.412;2023-05-07T20:38:34;17.90;;;9.02;;
51485;SDS011;37565;51.352;6.412;2023-05-07T20:41:05;17.83;;;8.95;;
51485;SDS011;37565;51.352;6.412;2023-05-07T20:43:34;15.07;;;7.88;;
51485;SDS011;37565;51.352;6.412;2023-05-07T20:46:03;21.20;;;8.27;;
51485;SDS011;37565;51.352;6.412;2023-05-07T20:48:34;13.27;;;7.03;;
51485;SDS011;37565;51.352;6.412;2023-05-07T20:51:02;16.83;;;6.47;;
51485;SDS011;37565;51.352;6.412;2023-05-07T20:53:30;15.50;;;6.78;;
51485;SDS011;37565;51.352;6.412;2023-05-07T20:55:59;16.40;;;6.47;;
51485;SDS011;37565;51.352;6.412;2023-05-07T20:58:27;13.85;;;6.80;;
51485;SDS011;37565;51.352;6.412;2023-05-07T21:00:55;14.90;;;5.97;;
51485;SDS011;37565;51.352;6.412;2023-05-07T21:03:23;10.00;;;4.95;;
51485;SDS011;37565;51.352;6.412;2023-05-07T21:05:53;11.48;;;5.45;;
51485;SDS011;37565;51.352;6.412;2023-05-07T21:08:22;13.15;;;5.47;;
51485;SDS011;37565;51.352;6.412;2023-05-07T21:10:51;9.18;;;5.10;;
51485;SDS011;37565;51.352;6.412;2023-05-07T21:13:19;9.93;;;4.57;;
51485;SDS011;37565;51.352;6.412;2023-05-07T21:15:48;7.95;;;4.70;;
51485;SDS011;37565;51.352;6.412;2023-05-07T21:18:18;6.90;;;4.63;;
51485;SDS011;37565;51.352;6.412;2023-05-07T21:20:46;7.30;;;4.10;;
51485;SDS011;37565;51.352;6.412;2023-05-07T21:23:15;10.27;;;4.55;;
51485;SDS011;37565;51.352;6.412;2023-05-07T21:25:43;9.45;;;4.15;;
51485;SDS011;37565;51.352;6.412;2023-05-07T21:28:12;9.38;;;5.03;;
51485;SDS011;37565;51.352;6.412;2023-05-07T21:30:40;10.93;;;4.15;;
51485;SDS011;37565;51.352;6.412;2023-05-07T21:33:08;16.45;;;5.13;;
51485;SDS011;37565;51.352;6.412;2023-05-07T21:35:36;10.23;;;4.75;;
51485;SDS011;37565;51.352;6.412;2023-05-07T21:38:05;10.43;;;4.75;;
51485;SDS011;37565;51.352;6.412;2023-05-07T21:40:34;8.63;;;4.93;;
51485;SDS011;37565;51.352;6.412;2023-05-07T21:43:02;11.30;;;5.10;;
51485;SDS011;37565;51.352;6.412;2023-05-07T21:45:30;9.43;;;4.30;;
51485;SDS011;37565;51.352;6.412;2023-05-07T21:47:58;7.15;;;4.32;;
51485;SDS011;37565;51.352;6.412;2023-05-07T21:50:26;11.70;;;4.85;;
51485;SDS011;37565;51.352;6.412;2023-05-07T21:52:54;8.13;;;5.10;;
51485;SDS011;37565;51.352;6.412;2023-05-07T21:55:22;11.15;;;4.55;;
51485;SDS011;37565;51.352;6.412;2023-05-07T21:57:52;11.70;;;5.20;;
51485;SDS011;37565;51.352;6.412;2023-05-07T22:00:30;9.60;;;5.10;;
51485;SDS011;37565;51.352;6.412;2023-05-07T22:02:58;12.45;;;4.90;;
51485;SDS011;37565;51.352;6.412;2023-05-07T22:05:27;10.70;;;4.55;;
51485;SDS011;37565;51.352;6.412;2023-05-07T22:07:54;9.77;;;5.00;;
51485;SDS011;37565;51.352;6.412;2023-05-07T22:10:22;11.10;;;4.88;;
51485;SDS011;37565;51.352;6.412;2023-05-07T22:12:52;11.23;;;4.72;;
51485;SDS011;37565;51.352;6.412;2023-05-07T22:15:20;9.88;;;5.60;;
51485;SDS011;37565;51.352;6.412;2023-05-07T22:17:48;7.45;;;4.53;;
51485;SDS011;37565;51.352;6.412;2023-05-07T22:20:16;9.73;;;4.80;;
51485;SDS011;37565;51.352;6.412;2023-05-07T22:22:44;9.27;;;4.43;;
51485;SDS011;37565;51.352;6.412;2023-05-07T22:25:17;8.85;;;4.38;;
51485;SDS011;37565;51.352;6.412;2023-05-07T22:27:45;9.18;;;4.65;;
51485;SDS011;37565;51.352;6.412;2023-05-07T22:30:14;11.18;;;4.93;;
51485;SDS011;37565;51.352;6.412;2023-05-07T22:32:43;10.07;;;5.57;;
51485;SDS011;37565;51.352;6.412;2023-05-07T22:35:11;16.45;;;5.30;;
51485;SDS011;37565;51.352;6.412;2023-05-07T22:37:39;7.53;;;5.15;;
